createdAt,value
2022-10-13T00:01:09.757Z,32.33
2022-10-13T00:03:38.930Z,15.93
2022-10-13T00:06:08.447Z,16.95
2022-10-13T00:08:38.265Z,18.92
2022-10-13T00:11:11.761Z,16.92
2022-10-13T00:13:39.810Z,23.75
2022-10-13T00:16:09.280Z,17.90
2022-10-13T00:18:37.764Z,26.10
2022-10-13T00:21:09.051Z,27.98
2022-10-13T00:23:39.030Z,22.13
2022-10-13T00:26:08.934Z,42.90
2022-10-13T00:28:37.802Z,52.78
2022-10-13T00:31:15.533Z,41.22
2022-10-13T00:33:43.660Z,30.23
2022-10-13T00:36:11.662Z,38.15
2022-10-13T00:38:41.102Z,20.33
2022-10-13T00:41:09.556Z,42.63
2022-10-13T00:43:57.825Z,13.25
2022-10-13T00:46:27.623Z,26.08
2022-10-13T00:49:01.395Z,19.63
2022-10-13T00:51:33.098Z,22.92
2022-10-13T00:54:05.611Z,23.50
2022-10-13T00:56:34.260Z,20.42
2022-10-13T00:59:03.658Z,17.15
2022-10-13T01:01:32.126Z,20.23
2022-10-13T01:04:00.083Z,35.05
2022-10-13T01:06:31.299Z,55.72
2022-10-13T01:08:59.270Z,108.28
2022-10-13T01:11:52.583Z,95.80
2022-10-13T01:14:29.444Z,46.67
2022-10-13T01:17:05.830Z,164.50
2022-10-13T01:20:01.758Z,183.25
2022-10-13T01:22:46.435Z,231.65
2022-10-13T01:25:31.240Z,165.82
2022-10-13T01:28:25.659Z,184.32
2022-10-13T01:31:02.097Z,95.97
2022-10-13T01:33:36.610Z,133.50
2022-10-13T01:36:14.718Z,136.43
2022-10-13T01:38:48.909Z,227.93
2022-10-13T01:41:22.055Z,185.45
2022-10-13T01:43:53.974Z,221.93
2022-10-13T01:46:26.055Z,326.00
2022-10-13T01:48:56.921Z,343.33
2022-10-13T01:51:28.119Z,281.63
2022-10-13T01:54:00.067Z,263.58
2022-10-13T01:56:30.982Z,252.45
2022-10-13T01:59:02.994Z,352.25
2022-10-13T02:01:47.332Z,280.50
2022-10-13T02:04:31.195Z,122.00
2022-10-13T02:07:05.995Z,156.00
2022-10-13T02:09:42.397Z,147.63
2022-10-13T02:12:18.071Z,162.85
2022-10-13T02:14:48.054Z,314.20
2022-10-13T02:17:18.423Z,409.83
2022-10-13T02:19:46.791Z,378.40
2022-10-13T02:22:17.640Z,328.50
2022-10-13T02:24:45.937Z,460.83
2022-10-13T02:27:14.751Z,348.70
2022-10-13T02:29:53.591Z,365.13
2022-10-13T02:32:23.845Z,381.83
2022-10-13T02:34:53.328Z,415.80
2022-10-13T02:37:21.519Z,394.05
2022-10-13T02:39:49.809Z,426.25
2022-10-13T02:42:18.667Z,400.48
2022-10-13T02:44:47.126Z,376.75
2022-10-13T02:47:15.213Z,377.52
2022-10-13T02:49:44.741Z,425.35
2022-10-13T02:52:15.706Z,572.47
2022-10-13T02:54:43.883Z,543.15
2022-10-13T02:57:11.844Z,583.67
2022-10-13T02:59:39.862Z,540.40
2022-10-13T03:02:07.972Z,510.95
2022-10-13T03:04:36.167Z,550.78
2022-10-13T03:07:05.761Z,648.35
2022-10-13T03:09:33.840Z,611.22
2022-10-13T03:12:01.883Z,562.75
2022-10-13T03:14:30.940Z,561.78
2022-10-13T03:16:59.026Z,449.20
2022-10-13T03:19:27.040Z,552.72
2022-10-13T03:21:55.179Z,679.88
2022-10-13T03:24:24.599Z,636.65
2022-10-13T03:26:52.693Z,567.38
2022-10-13T03:29:22.507Z,622.22
2022-10-13T03:31:50.593Z,745.85
2022-10-13T03:34:20.250Z,733.88
2022-10-13T03:36:48.314Z,833.75
2022-10-13T03:39:16.437Z,785.85
2022-10-13T03:41:46.155Z,809.25
2022-10-13T03:44:14.776Z,817.45
2022-10-13T03:46:42.961Z,924.88
2022-10-13T03:49:12.098Z,962.80
2022-10-13T03:51:40.463Z,848.83
2022-10-13T03:54:08.909Z,828.50
2022-10-13T03:56:37.262Z,893.40
2022-10-13T03:59:07.459Z,846.97
2022-10-13T04:01:35.771Z,878.55
2022-10-13T04:04:04.176Z,857.15
2022-10-13T04:06:32.472Z,921.03
2022-10-13T04:09:00.509Z,894.45
2022-10-13T04:11:29.062Z,943.10
2022-10-13T04:13:58.276Z,942.33
2022-10-13T04:16:29.380Z,887.05
2022-10-13T04:18:59.927Z,915.03
2022-10-13T04:21:28.922Z,859.40
2022-10-13T04:23:58.175Z,926.97
2022-10-13T04:26:28.164Z,872.05
2022-10-13T04:28:56.803Z,958.13
2022-10-13T04:31:25.434Z,917.83
2022-10-13T04:33:55.170Z,934.28
2022-10-13T04:36:23.593Z,991.65
2022-10-13T04:38:52.126Z,929.30
2022-10-13T04:41:21.339Z,981.88
2022-10-13T04:43:49.933Z,989.05
2022-10-13T04:46:19.937Z,932.83
2022-10-13T04:48:50.756Z,952.42
2022-10-13T04:51:25.089Z,999.90
2022-10-13T04:53:56.895Z,940.92
2022-10-13T04:56:25.899Z,996.97
2022-10-13T04:58:54.394Z,999.80
2022-10-13T05:01:24.156Z,946.47
2022-10-13T05:03:53.466Z,954.60
2022-10-13T05:06:24.769Z,943.78
2022-10-13T05:08:57.579Z,950.08
2022-10-13T05:11:26.649Z,946.90
2022-10-13T05:13:55.328Z,936.42
2022-10-13T05:16:24.219Z,941.97
2022-10-13T05:18:55.714Z,945.38
2022-10-13T05:21:26.925Z,999.90
2022-10-13T05:23:56.031Z,938.70
2022-10-13T05:26:28.546Z,984.80
2022-10-13T05:28:56.843Z,928.75
2022-10-13T05:31:28.045Z,983.00
2022-10-13T05:33:58.095Z,920.92
2022-10-13T05:36:30.803Z,959.22
2022-10-13T05:39:00.717Z,939.30
2022-10-13T05:41:30.122Z,990.38
2022-10-13T05:44:00.144Z,991.33
2022-10-13T05:46:28.558Z,993.97
2022-10-13T05:48:56.619Z,933.42
2022-10-13T05:51:29.237Z,963.10
2022-10-13T05:54:03.354Z,873.15
2022-10-13T05:56:34.330Z,835.92
2022-10-13T05:59:05.749Z,897.85
2022-10-13T06:01:37.820Z,797.20
2022-10-13T06:04:09.615Z,754.25
2022-10-13T06:06:40.082Z,828.70
2022-10-13T06:09:08.214Z,802.53
2022-10-13T06:11:39.345Z,839.58
2022-10-13T06:14:07.545Z,893.97
2022-10-13T06:16:36.887Z,802.10
2022-10-13T06:19:05.500Z,755.63
2022-10-13T06:21:35.761Z,734.38
2022-10-13T06:24:06.565Z,509.25
2022-10-13T06:26:34.775Z,454.33
2022-10-13T06:29:02.800Z,390.08
2022-10-13T06:31:30.928Z,458.10
2022-10-13T06:33:59.775Z,397.35
2022-10-13T06:36:28.109Z,390.15
2022-10-13T06:38:56.226Z,313.27
2022-10-13T06:41:26.414Z,30.15
2022-10-13T06:43:54.730Z,71.13
2022-10-13T06:46:22.793Z,71.05
2022-10-13T06:48:51.828Z,56.20
2022-10-13T06:51:22.454Z,67.45
2022-10-13T06:53:50.774Z,80.93
2022-10-13T06:56:23.127Z,76.95
2022-10-13T06:58:52.692Z,65.28
2022-10-13T07:01:20.764Z,68.05
2022-10-13T07:03:50.161Z,81.57
2022-10-13T07:06:21.308Z,82.30
2022-10-13T07:08:52.018Z,58.55
2022-10-13T07:11:21.470Z,109.93
2022-10-13T07:13:55.448Z,68.40
2022-10-13T07:16:23.670Z,136.77
2022-10-13T07:18:51.688Z,113.57
2022-10-13T07:21:20.183Z,103.93
2022-10-13T07:23:48.443Z,95.57
2022-10-13T07:26:17.964Z,89.53
2022-10-13T07:28:46.394Z,95.05
2022-10-13T07:31:17.661Z,83.50
2022-10-13T07:33:50.260Z,91.38
2022-10-13T07:36:19.001Z,95.68
2022-10-13T07:38:47.189Z,88.25
2022-10-13T07:41:15.910Z,88.80
2022-10-13T07:43:44.241Z,81.40
2022-10-13T07:46:15.048Z,82.00
2022-10-13T07:48:43.313Z,102.20
2022-10-13T07:51:13.517Z,99.72
2022-10-13T07:53:42.384Z,92.88
2022-10-13T07:56:12.720Z,79.75
2022-10-13T07:58:42.623Z,90.32
2022-10-13T08:01:10.756Z,76.82
2022-10-13T08:03:47.157Z,78.82
2022-10-13T08:06:19.717Z,80.50
2022-10-13T08:08:48.423Z,66.78
2022-10-13T08:11:18.618Z,79.60
2022-10-13T08:13:50.878Z,68.82
2022-10-13T08:16:22.837Z,63.17
2022-10-13T08:18:52.975Z,36.03
2022-10-13T08:24:13.916Z,48.30
2022-10-13T08:26:43.059Z,40.00
2022-10-13T08:29:26.520Z,45.28
2022-10-13T08:31:55.792Z,47.88
2022-10-13T08:34:26.206Z,43.15
2022-10-13T08:36:56.592Z,46.00
2022-10-13T08:39:25.648Z,60.30
2022-10-13T08:41:55.104Z,51.97
2022-10-13T08:45:02.633Z,43.65
2022-10-13T08:47:25.356Z,98.57
2022-10-13T08:50:00.221Z,112.88
2022-10-13T08:52:43.124Z,194.15
2022-10-13T08:55:16.908Z,182.18
2022-10-13T08:57:45.264Z,214.32
2022-10-13T09:00:14.774Z,177.85
2022-10-13T09:02:45.980Z,196.13
2022-10-13T09:05:26.155Z,198.05
2022-10-13T09:07:59.977Z,229.35
2022-10-13T09:10:28.573Z,140.40
2022-10-13T09:12:58.745Z,186.32
2022-10-13T09:15:26.859Z,188.02
2022-10-13T09:18:10.877Z,166.73
2022-10-13T09:20:40.966Z,160.77
2022-10-13T09:23:19.231Z,177.15
2022-10-13T09:25:49.313Z,153.23
2022-10-13T09:28:21.632Z,225.32
2022-10-13T09:30:59.163Z,183.48
2022-10-13T09:33:27.303Z,156.00
2022-10-13T09:36:14.474Z,154.57
2022-10-13T09:38:45.350Z,208.93
2022-10-13T09:41:22.846Z,169.98
2022-10-13T09:44:08.043Z,186.00
2022-10-13T09:46:40.311Z,172.77
2022-10-13T09:49:26.263Z,185.63
2022-10-13T09:52:01.509Z,158.05
2022-10-13T09:54:39.165Z,160.43
2022-10-13T09:57:18.975Z,189.23
2022-10-13T09:59:50.709Z,150.77
2022-10-13T10:02:29.533Z,136.70
2022-10-13T10:05:02.047Z,199.10
2022-10-13T10:07:33.846Z,215.90
2022-10-13T10:10:05.919Z,204.80
2022-10-13T10:12:38.227Z,214.00
2022-10-13T10:15:20.964Z,220.00
2022-10-13T10:17:55.446Z,224.95
2022-10-13T10:20:53.231Z,274.75
2022-10-13T10:23:34.088Z,245.82
2022-10-13T10:26:07.144Z,335.50
2022-10-13T10:28:57.095Z,314.45
2022-10-13T10:31:40.197Z,333.65
2022-10-13T10:34:38.348Z,258.48
2022-10-13T10:37:18.756Z,294.90
2022-10-13T10:39:56.249Z,298.75
2022-10-13T10:42:53.039Z,348.50
2022-10-13T10:45:25.594Z,373.83
2022-10-13T10:47:57.712Z,303.20
2022-10-13T10:50:30.483Z,258.40
2022-10-13T10:53:05.036Z,297.73
2022-10-13T10:55:41.679Z,268.65
2022-10-13T10:58:25.389Z,286.20
2022-10-13T11:01:00.227Z,326.48
2022-10-13T11:03:41.128Z,281.35
2022-10-13T11:06:24.526Z,342.65
2022-10-13T11:08:55.222Z,405.13
2022-10-13T11:11:40.527Z,514.22
2022-10-13T11:14:30.084Z,576.45
2022-10-13T11:17:29.215Z,562.92
2022-10-13T11:19:58.552Z,622.35
2022-10-13T11:22:27.589Z,619.28
2022-10-13T11:25:03.756Z,662.03
2022-10-13T11:27:46.275Z,806.97
2022-10-13T11:30:49.784Z,721.83
2022-10-13T11:33:35.394Z,688.80
2022-10-13T11:36:30.477Z,711.00
2022-10-13T11:39:10.008Z,632.03
2022-10-13T11:41:49.275Z,787.92
2022-10-13T11:47:09.198Z,689.83
2022-10-13T11:49:53.519Z,802.97
2022-10-13T11:53:02.230Z,770.47
2022-10-13T11:55:40.427Z,783.80
2022-10-13T11:58:16.437Z,817.85
2022-10-13T12:00:57.577Z,823.15
2022-10-13T12:03:29.825Z,774.13
2022-10-13T12:06:02.433Z,760.33
2022-10-13T12:08:33.705Z,512.17
2022-10-13T12:11:04.797Z,463.83
2022-10-13T12:13:34.392Z,350.75
2022-10-13T12:16:06.396Z,342.60
2022-10-13T12:18:38.152Z,383.20
2022-10-13T12:21:12.437Z,249.82
2022-10-13T12:23:42.087Z,210.60
2022-10-13T12:26:16.872Z,172.45
2022-10-13T12:28:51.074Z,213.00
2022-10-13T12:31:22.242Z,248.73
2022-10-13T12:33:56.052Z,198.48
2022-10-13T12:36:30.080Z,307.35
2022-10-13T12:39:02.063Z,246.98
2022-10-13T12:41:32.898Z,271.38
2022-10-13T12:44:04.030Z,292.20
2022-10-13T12:46:44.457Z,312.45
2022-10-13T12:49:16.196Z,242.70
2022-10-13T12:51:47.314Z,312.30
2022-10-13T12:54:22.230Z,331.02
2022-10-13T12:56:55.370Z,412.20
2022-10-13T12:59:25.742Z,432.60
2022-10-13T13:02:00.862Z,433.95
2022-10-13T13:07:01.047Z,395.90
2022-10-13T13:09:31.187Z,279.85
2022-10-13T13:12:16.597Z,291.70
2022-10-13T13:14:48.443Z,278.58
2022-10-13T13:17:45.760Z,285.35
2022-10-13T13:20:23.283Z,211.80
2022-10-13T13:22:51.968Z,294.40
2022-10-13T13:25:20.212Z,162.38
2022-10-13T13:27:48.508Z,175.90
2022-10-13T13:30:21.056Z,319.25
2022-10-13T13:32:51.781Z,239.77
2022-10-13T13:35:19.877Z,315.80
2022-10-13T13:37:50.543Z,286.42
2022-10-13T13:40:21.687Z,302.20
2022-10-13T13:42:49.757Z,281.52
2022-10-13T13:45:19.723Z,344.40
2022-10-13T13:47:48.705Z,356.33
2022-10-13T13:50:23.350Z,293.23
2022-10-13T13:52:57.468Z,359.58
2022-10-13T13:55:25.875Z,344.02
2022-10-13T13:57:53.922Z,320.73
2022-10-13T14:00:22.521Z,340.38
2022-10-13T14:02:56.714Z,346.77
2022-10-13T14:05:26.311Z,287.20
2022-10-13T14:07:56.723Z,256.38
2022-10-13T14:10:25.816Z,366.23
2022-10-13T14:12:53.917Z,345.50
2022-10-13T14:15:25.825Z,323.48
2022-10-13T14:17:56.939Z,446.23
2022-10-13T14:20:26.544Z,329.67
2022-10-13T14:22:54.765Z,304.33
2022-10-13T14:25:22.880Z,337.92
2022-10-13T14:27:51.133Z,332.50
2022-10-13T14:30:19.381Z,250.23
2022-10-13T14:32:47.400Z,270.67
2022-10-13T14:35:15.376Z,301.10
2022-10-13T14:37:44.827Z,287.98
2022-10-13T14:40:12.823Z,273.88
2022-10-13T14:42:42.436Z,293.60
2022-10-13T14:45:15.800Z,380.60
2022-10-13T14:47:43.837Z,255.15
2022-10-13T14:50:12.218Z,330.00
2022-10-13T14:52:40.299Z,346.75
2022-10-13T14:55:10.711Z,331.77
2022-10-13T14:57:40.190Z,245.70
2022-10-13T15:00:10.530Z,247.48
2022-10-13T15:02:38.616Z,289.77
2022-10-13T15:05:07.725Z,341.70
2022-10-13T15:07:40.223Z,374.23
2022-10-13T15:10:11.178Z,307.80
2022-10-13T15:12:39.282Z,343.60
2022-10-13T15:15:08.010Z,393.35
2022-10-13T15:17:36.926Z,367.95
2022-10-13T15:20:06.052Z,393.75
2022-10-13T15:22:34.149Z,417.65
2022-10-13T15:25:04.418Z,353.42
2022-10-13T15:27:38.080Z,152.73
2022-10-13T15:30:10.827Z,147.75
2022-10-13T15:32:38.790Z,140.70
2022-10-13T15:35:07.844Z,128.27
2022-10-13T15:37:37.512Z,131.90
2022-10-13T15:40:06.407Z,191.52
2022-10-13T15:42:35.757Z,198.23
2022-10-13T15:45:10.001Z,227.45
2022-10-13T15:47:39.146Z,324.95
2022-10-13T15:50:08.097Z,100.72
2022-10-13T15:52:40.844Z,81.05
2022-10-13T15:55:09.776Z,99.53
2022-10-13T15:57:39.181Z,162.95
2022-10-13T16:00:09.132Z,117.38
2022-10-13T16:02:43.851Z,78.80
2022-10-13T16:05:14.273Z,114.13
2022-10-13T16:07:42.820Z,97.13
2022-10-13T16:10:12.545Z,83.53
2022-10-13T16:12:46.846Z,212.15
2022-10-13T16:15:18.490Z,310.52
2022-10-13T16:17:46.591Z,427.77
2022-10-13T16:20:15.191Z,406.70
2022-10-13T16:22:43.230Z,413.48
2022-10-13T16:25:12.606Z,480.13
2022-10-13T16:27:44.627Z,443.00
2022-10-13T16:30:13.879Z,480.77
2022-10-13T16:32:42.350Z,274.23
2022-10-13T16:35:10.838Z,241.35
2022-10-13T16:37:38.791Z,254.52
2022-10-13T16:40:07.681Z,293.77
2022-10-13T16:42:36.424Z,521.40
2022-10-13T16:45:07.027Z,405.58
2022-10-13T16:47:35.185Z,422.75
2022-10-13T16:50:06.282Z,552.92
2022-10-13T16:52:34.425Z,515.15
2022-10-13T16:55:02.763Z,580.30
2022-10-13T16:57:31.306Z,503.13
2022-10-13T16:59:59.331Z,459.63
2022-10-13T17:02:31.321Z,484.88
2022-10-13T17:04:59.423Z,495.73
2022-10-13T17:07:27.546Z,474.70
2022-10-13T17:09:55.698Z,431.77
2022-10-13T17:12:23.685Z,453.10
2022-10-13T17:14:51.645Z,345.60
2022-10-13T17:17:20.044Z,442.52
2022-10-13T17:19:50.106Z,249.65
2022-10-13T17:22:18.187Z,270.10
2022-10-13T17:24:48.414Z,347.13
2022-10-13T17:27:17.087Z,333.20
2022-10-13T17:29:45.505Z,378.63
2022-10-13T17:32:13.653Z,421.40
2022-10-13T17:34:41.707Z,409.52
2022-10-13T17:37:11.808Z,439.00
2022-10-13T17:39:39.851Z,409.67
2022-10-13T17:42:07.872Z,391.58
2022-10-13T17:44:35.924Z,474.25
2022-10-13T17:47:07.122Z,448.50
2022-10-13T17:49:35.283Z,473.77
2022-10-13T17:52:03.264Z,419.80
2022-10-13T17:54:32.844Z,456.67
2022-10-13T17:57:00.937Z,463.38
2022-10-13T17:59:29.108Z,424.02
2022-10-13T18:01:57.193Z,554.40
2022-10-13T18:04:25.322Z,565.85
2022-10-13T18:06:54.434Z,731.03
2022-10-13T18:09:24.221Z,550.60
2022-10-13T18:11:55.512Z,616.13
2022-10-13T18:14:25.615Z,627.53
2022-10-13T18:16:54.096Z,766.78
2022-10-13T18:19:22.546Z,763.35
2022-10-13T18:21:52.748Z,827.92
2022-10-13T18:24:20.996Z,798.25
2022-10-13T18:26:49.062Z,852.13
2022-10-13T18:29:18.484Z,854.22
2022-10-13T18:31:46.623Z,838.90
2022-10-13T18:34:17.207Z,826.88
2022-10-13T18:36:47.173Z,781.38
2022-10-13T18:39:17.043Z,790.60
2022-10-13T18:41:47.957Z,806.97
2022-10-13T18:44:16.570Z,759.38
2022-10-13T18:46:45.994Z,849.78
2022-10-13T18:49:18.145Z,781.30
2022-10-13T18:51:47.486Z,779.72
2022-10-13T18:54:15.485Z,770.10
2022-10-13T18:56:43.571Z,792.63
2022-10-13T18:59:12.295Z,782.97
2022-10-13T19:01:41.612Z,837.30
2022-10-13T19:04:12.856Z,807.22
2022-10-13T19:06:41.745Z,842.17
2022-10-13T19:09:12.501Z,831.85
2022-10-13T19:11:41.020Z,828.50
2022-10-13T19:14:11.825Z,799.10
2022-10-13T19:16:43.511Z,801.10
2022-10-13T19:19:13.590Z,801.50
2022-10-13T19:21:43.500Z,825.47
2022-10-13T19:24:12.150Z,876.17
2022-10-13T19:26:40.244Z,870.42
2022-10-13T19:29:11.193Z,870.60
2022-10-13T19:31:40.552Z,881.85
2022-10-13T19:34:09.464Z,859.38
2022-10-13T19:36:40.717Z,761.78
2022-10-13T19:39:12.246Z,779.00
2022-10-13T19:41:40.752Z,726.08
2022-10-13T19:44:08.876Z,677.05
2022-10-13T19:46:40.355Z,724.42
2022-10-13T19:49:08.519Z,671.67
2022-10-13T19:51:41.664Z,646.83
2022-10-13T19:54:10.903Z,661.90
2022-10-13T19:56:39.258Z,682.85
2022-10-13T19:59:09.232Z,661.90
2022-10-13T20:01:41.015Z,706.67
2022-10-13T20:04:14.399Z,776.92
2022-10-13T20:06:46.280Z,786.75
2022-10-13T20:09:14.682Z,902.92
2022-10-13T20:11:45.032Z,832.38
2022-10-13T20:14:13.297Z,930.83
2022-10-13T20:16:41.757Z,934.25
2022-10-13T20:19:12.357Z,920.08
2022-10-13T20:21:40.553Z,953.28
2022-10-13T20:24:13.730Z,946.80
2022-10-13T20:26:41.890Z,985.35
2022-10-13T20:29:10.042Z,991.25
2022-10-13T20:31:38.255Z,958.58
2022-10-13T20:34:06.346Z,879.38
2022-10-13T20:36:38.829Z,905.83
2022-10-13T20:39:07.662Z,958.00
2022-10-13T20:41:37.030Z,979.25
2022-10-13T20:44:05.366Z,914.70
2022-10-13T20:46:34.881Z,974.45
2022-10-13T20:49:12.579Z,904.45
2022-10-13T20:51:45.304Z,934.20
2022-10-13T20:54:15.081Z,994.53
2022-10-13T20:56:44.970Z,568.42
2022-10-13T20:59:15.613Z,957.72
2022-10-13T21:01:43.860Z,926.05
2022-10-13T21:04:12.232Z,980.10
2022-10-13T21:06:41.031Z,961.70
2022-10-13T21:09:09.816Z,893.28
2022-10-13T21:11:40.661Z,861.10
2022-10-13T21:14:10.401Z,865.67
2022-10-13T21:16:38.943Z,921.05
2022-10-13T21:19:15.123Z,931.80
2022-10-13T21:21:43.199Z,918.72
2022-10-13T21:24:11.672Z,963.55
2022-10-13T21:26:41.010Z,901.97
2022-10-13T21:29:15.921Z,883.53
2022-10-13T21:31:44.124Z,954.22
2022-10-13T21:34:13.437Z,935.50
2022-10-13T21:36:44.470Z,929.10
2022-10-13T21:39:14.642Z,973.35
2022-10-13T21:41:42.749Z,912.65
2022-10-13T21:44:15.115Z,953.53
2022-10-13T21:46:43.394Z,903.53
2022-10-13T21:49:11.534Z,966.40
2022-10-13T21:51:41.618Z,938.00
2022-10-13T21:54:11.646Z,999.90
2022-10-13T21:56:40.557Z,999.90
2022-10-13T21:59:09.484Z,975.40
2022-10-13T22:01:38.848Z,947.47
2022-10-13T22:04:12.945Z,982.72
2022-10-13T22:06:41.234Z,987.72
2022-10-13T22:09:09.731Z,959.10
2022-10-13T22:11:38.905Z,961.25
2022-10-13T22:14:11.941Z,997.97
2022-10-13T22:16:42.751Z,960.17
2022-10-13T22:19:17.012Z,999.90
2022-10-13T22:21:47.018Z,999.90
2022-10-13T22:24:17.052Z,974.55
2022-10-13T22:26:46.044Z,979.35
2022-10-13T22:29:15.600Z,995.25
2022-10-13T22:31:45.490Z,999.90
2022-10-13T22:34:14.439Z,999.90
2022-10-13T22:36:45.030Z,990.05
2022-10-13T22:39:14.017Z,999.90
2022-10-13T22:41:42.308Z,837.53
2022-10-13T22:44:10.697Z,999.90
2022-10-13T22:46:40.171Z,928.60
2022-10-13T22:49:14.746Z,897.10
2022-10-13T22:51:43.083Z,882.17
2022-10-13T22:54:11.446Z,973.05
2022-10-13T22:56:41.038Z,968.58
2022-10-13T22:59:10.470Z,965.97
2022-10-13T23:01:38.524Z,999.90
2022-10-13T23:04:06.952Z,981.22
2022-10-13T23:06:36.623Z,999.90
2022-10-13T23:09:09.192Z,931.15
2022-10-13T23:11:37.732Z,958.40
2022-10-13T23:14:07.366Z,944.53
2022-10-13T23:16:35.629Z,947.00
2022-10-13T23:19:03.892Z,999.90
2022-10-13T23:21:32.325Z,950.67
2022-10-13T23:24:03.269Z,999.90
2022-10-13T23:26:32.257Z,883.22
2022-10-13T23:29:00.825Z,952.92
2022-10-13T23:31:29.761Z,946.53
2022-10-13T23:33:58.574Z,935.20
2022-10-13T23:36:29.312Z,953.88
2022-10-13T23:38:58.938Z,988.15
2022-10-13T23:41:28.863Z,603.05
2022-10-13T23:43:57.017Z,943.03
2022-10-13T23:46:25.489Z,718.50
2022-10-13T23:48:53.639Z,908.10
2022-10-13T23:51:23.236Z,841.90
2022-10-13T23:53:51.917Z,710.13
2022-10-13T23:56:20.918Z,733.47
2022-10-13T23:58:50.814Z,546.65
